Time;durP1;ratioP1;P1;durP2;ratioP2;P2;SDS_P1;SDS_P2;PMS_P1;PMS_P2;Temp;Humidity;BMP_temperature;BMP_pressure;BME280_temperature;BME280_humidity;BME280_pressure;Samples;Min_cycle;Max_cycle;Signal;HPM_P1;HPM_P2
2021/10/03 00:00:48;;;;;;;9.30;4.68;;;19.30;99.90;;;;;;5040182;28;20167;-86
2021/10/03 00:03:18;;;;;;;5.88;4.05;;;19.20;99.90;;;;;;5038437;28;20065;-88
2021/10/03 00:05:46;;;;;;;4.65;3.92;;;19.30;99.90;;;;;;5038712;28;20053;-87
2021/10/03 00:08:13;;;;;;;7.63;4.10;;;19.20;99.90;;;;;;5039593;28;20450;-88
2021/10/03 00:10:41;;;;;;;5.95;4.28;;;19.20;99.90;;;;;;5038683;28;20088;-88
2021/10/03 00:13:09;;;;;;;6.55;4.15;;;19.20;99.90;;;;;;5039123;28;20054;-87
2021/10/03 00:15:37;;;;;;;6.47;4.47;;;19.20;99.90;;;;;;5041299;28;20469;-88
2021/10/03 00:18:06;;;;;;;5.80;4.43;;;19.20;99.90;;;;;;5040126;28;20080;-87
2021/10/03 00:20:33;;;;;;;5.22;4.10;;;19.30;99.90;;;;;;5039330;28;20060;-87
2021/10/03 00:23:00;;;;;;;8.27;4.13;;;19.30;99.90;;;;;;5039818;28;20077;-88
2021/10/03 00:25:28;;;;;;;9.13;4.25;;;19.30;99.90;;;;;;5039103;28;20107;-88
2021/10/03 00:27:55;;;;;;;5.95;4.25;;;19.30;99.90;;;;;;5040210;28;20379;-88
2021/10/03 00:30:25;;;;;;;5.88;4.25;;;19.30;99.90;;;;;;5040040;28;20537;-88
2021/10/03 00:32:52;;;;;;;8.95;4.22;;;19.30;99.90;;;;;;5039263;28;20113;-87
2021/10/03 00:35:20;;;;;;;5.03;4.35;;;19.40;99.90;;;;;;5039004;28;20567;-87
2021/10/03 00:37:47;;;;;;;6.60;4.30;;;19.40;99.90;;;;;;5040034;28;20402;-87
2021/10/03 00:40:14;;;;;;;8.38;4.28;;;19.40;99.90;;;;;;5039460;28;20111;-88
2021/10/03 00:42:42;;;;;;;5.18;3.70;;;19.30;99.90;;;;;;5039675;28;20137;-87
2021/10/03 00:45:12;;;;;;;6.80;3.97;;;19.30;99.90;;;;;;5038984;28;20813;-89
2021/10/03 00:47:41;;;;;;;9.90;4.55;;;19.30;99.90;;;;;;5037949;28;20571;-89
2021/10/03 00:50:09;;;;;;;7.40;4.25;;;19.30;99.90;;;;;;5038993;28;20054;-88
2021/10/03 00:52:37;;;;;;;5.07;4.15;;;19.30;99.90;;;;;;5038298;28;20109;-88
2021/10/03 00:55:04;;;;;;;8.02;4.30;;;19.30;99.90;;;;;;5038846;28;20049;-88
2021/10/03 00:57:31;;;;;;;5.05;4.00;;;19.30;99.90;;;;;;5038765;28;20088;-88
2021/10/03 00:59:59;;;;;;;5.40;4.30;;;19.20;99.90;;;;;;5038295;28;20057;-87
2021/10/03 01:02:26;;;;;;;7.10;4.30;;;19.30;99.90;;;;;;5038803;28;20469;-87
2021/10/03 01:04:54;;;;;;;6.28;4.50;;;19.30;99.90;;;;;;5038608;28;20123;-87
2021/10/03 01:07:21;;;;;;;8.48;4.18;;;19.30;99.90;;;;;;5038739;28;20049;-87
2021/10/03 01:09:48;;;;;;;6.28;4.78;;;19.20;99.90;;;;;;5038972;28;20045;-87
2021/10/03 01:12:15;;;;;;;6.97;4.40;;;19.20;99.90;;;;;;5039546;28;20087;-87
2021/10/03 01:14:42;;;;;;;7.45;4.32;;;19.20;99.90;;;;;;5038304;28;20085;-87
2021/10/03 01:17:09;;;;;;;7.22;4.05;;;19.10;99.90;;;;;;5038947;28;20124;-87
2021/10/03 01:19:37;;;;;;;5.38;3.83;;;19.10;99.90;;;;;;5038006;28;20132;-87
2021/10/03 01:22:06;;;;;;;8.40;4.03;;;19.10;99.90;;;;;;5038027;28;20046;-87
2021/10/03 01:24:33;;;;;;;5.97;4.22;;;19.10;99.90;;;;;;5038142;28;20077;-87
2021/10/03 01:27:01;;;;;;;5.25;4.20;;;19.10;99.90;;;;;;5039019;28;20056;-88
2021/10/03 01:29:28;;;;;;;5.55;4.22;;;19.10;99.90;;;;;;5037158;28;20417;-86
2021/10/03 01:31:55;;;;;;;5.47;4.13;;;19.00;99.90;;;;;;5037424;28;20076;-87
2021/10/03 01:34:22;;;;;;;6.88;3.92;;;19.10;99.90;;;;;;5037511;28;20045;-87
2021/10/03 01:36:49;;;;;;;4.15;3.70;;;19.00;99.90;;;;;;5037192;28;20538;-87
2021/10/03 01:39:17;;;;;;;5.95;3.78;;;19.00;99.90;;;;;;5037114;28;20143;-87
2021/10/03 01:41:44;;;;;;;5.93;3.85;;;19.00;99.90;;;;;;5037231;28;20088;-88
2021/10/03 01:44:11;;;;;;;4.95;3.83;;;18.90;99.90;;;;;;5037054;28;20136;-88
2021/10/03 01:46:38;;;;;;;8.65;4.05;;;18.90;99.90;;;;;;5036372;28;20571;-87
2021/10/03 01:49:05;;;;;;;4.68;3.65;;;18.90;99.90;;;;;;5036976;28;20506;-86
2021/10/03 01:51:32;;;;;;;5.05;4.00;;;18.90;99.90;;;;;;5037100;28;20470;-88
2021/10/03 01:53:59;;;;;;;7.70;4.07;;;18.90;99.90;;;;;;5037121;28;20088;-88
2021/10/03 01:56:31;;;;;;;10.20;5.18;;;18.80;99.90;;;;;;5036927;28;20085;-87
2021/10/03 01:59:01;;;;;;;6.50;4.43;;;18.80;99.90;;;;;;5036349;28;20080;-86
2021/10/03 02:01:30;;;;;;;6.88;4.88;;;18.80;99.90;;;;;;5037400;28;20132;-87
2021/10/03 02:03:57;;;;;;;7.80;5.25;;;18.70;99.90;;;;;;5036483;28;20076;-88
2021/10/03 02:06:25;;;;;;;8.73;5.20;;;18.70;99.90;;;;;;5037432;28;20077;-87
2021/10/03 02:08:53;;;;;;;6.88;4.85;;;18.60;99.90;;;;;;5037127;28;20452;-88
2021/10/03 02:11:20;;;;;;;9.15;4.65;;;18.60;99.90;;;;;;5036339;28;20132;-87
2021/10/03 02:13:49;;;;;;;9.43;4.72;;;18.60;99.90;;;;;;5037455;28;20076;-87
2021/10/03 02:16:16;;;;;;;5.32;4.18;;;18.60;99.90;;;;;;5036783;28;20077;-88
2021/10/03 02:18:45;;;;;;;8.52;4.40;;;18.50;99.90;;;;;;5037501;28;20128;-86
2021/10/03 02:21:13;;;;;;;8.32;4.93;;;18.50;99.90;;;;;;5037477;28;20046;-88
2021/10/03 02:23:41;;;;;;;5.63;4.50;;;18.50;99.90;;;;;;5036934;28;20506;-88
2021/10/03 02:26:09;;;;;;;8.27;4.35;;;18.50;99.90;;;;;;5037325;28;20446;-87
2021/10/03 02:28:36;;;;;;;7.13;4.43;;;18.50;99.90;;;;;;5037595;28;20100;-88
2021/10/03 02:31:08;;;;;;;6.35;4.35;;;18.40;99.90;;;;;;5037112;28;20081;-88
2021/10/03 02:33:35;;;;;;;8.25;4.43;;;18.40;99.90;;;;;;5037218;28;20057;-88
2021/10/03 02:36:03;;;;;;;8.35;4.88;;;18.40;99.90;;;;;;5036931;28;20141;-88
2021/10/03 02:38:31;;;;;;;7.28;4.82;;;18.40;99.90;;;;;;5037489;28;20124;-88
2021/10/03 02:41:00;;;;;;;9.25;4.88;;;18.40;99.90;;;;;;5039829;28;20099;-88
2021/10/03 02:43:29;;;;;;;5.57;4.55;;;18.30;99.90;;;;;;5042533;28;20703;-88
2021/10/03 02:45:57;;;;;;;6.93;4.72;;;18.30;99.90;;;;;;5041248;28;20482;-87
2021/10/03 02:48:26;;;;;;;7.70;4.80;;;18.30;99.90;;;;;;5040743;28;20084;-89
2021/10/03 02:50:54;;;;;;;8.25;4.65;;;18.40;99.90;;;;;;5041179;28;20105;-88
2021/10/03 02:53:23;;;;;;;6.78;5.03;;;18.30;99.90;;;;;;5040924;28;20382;-88
2021/10/03 02:55:50;;;;;;;9.27;4.90;;;18.30;99.90;;;;;;5041903;28;20132;-88
2021/10/03 02:58:18;;;;;;;6.03;4.90;;;18.30;99.90;;;;;;5041740;28;20046;-87
2021/10/03 03:00:47;;;;;;;7.93;5.00;;;18.30;99.90;;;;;;5040612;28;20135;-87
2021/10/03 03:03:14;;;;;;;9.82;5.05;;;18.30;99.90;;;;;;5042210;28;20069;-88
2021/10/03 03:05:42;;;;;;;5.88;4.80;;;18.30;99.90;;;;;;5043364;28;20092;-88
2021/10/03 03:08:09;;;;;;;7.53;5.07;;;18.40;99.90;;;;;;5043772;28;20073;-88
2021/10/03 03:10:36;;;;;;;8.88;4.95;;;18.40;99.90;;;;;;5046343;28;20109;-87
2021/10/03 03:13:04;;;;;;;6.32;5.15;;;18.40;99.90;;;;;;5046219;28;20410;-87
2021/10/03 03:15:31;;;;;;;8.32;5.50;;;18.40;99.90;;;;;;5043094;28;20060;-87
2021/10/03 03:17:58;;;;;;;6.13;5.07;;;18.40;99.90;;;;;;5045724;28;20077;-89
2021/10/03 03:20:25;;;;;;;8.88;5.93;;;18.50;99.90;;;;;;5041870;28;20064;-88
2021/10/03 03:22:53;;;;;;;7.32;5.38;;;18.50;99.90;;;;;;5041257;28;20128;-88
2021/10/03 03:25:20;;;;;;;7.40;5.20;;;18.50;99.90;;;;;;5041109;28;20053;-88
2021/10/03 03:27:47;;;;;;;9.20;5.50;;;18.50;99.90;;;;;;5041061;28;20117;-89
2021/10/03 03:30:15;;;;;;;6.50;5.05;;;18.60;99.90;;;;;;5041362;28;20069;-89
2021/10/03 03:32:42;;;;;;;7.65;5.30;;;18.60;99.90;;;;;;5040643;28;20510;-89
2021/10/03 03:35:10;;;;;;;9.23;5.57;;;18.60;99.90;;;;;;5041509;28;20084;-88
2021/10/03 03:37:38;;;;;;;8.93;5.43;;;18.60;99.90;;;;;;5040942;28;20482;-89
2021/10/03 03:40:09;;;;;;;6.45;5.30;;;18.70;99.90;;;;;;5041452;28;20149;-89
2021/10/03 03:42:36;;;;;;;8.65;5.70;;;18.70;99.90;;;;;;5040918;28;20538;-88
2021/10/03 03:45:04;;;;;;;7.07;5.85;;;18.70;99.90;;;;;;5042140;28;20422;-89
2021/10/03 03:47:31;;;;;;;8.50;6.05;;;18.70;99.90;;;;;;5041280;28;20100;-88
2021/10/03 03:49:58;;;;;;;7.28;5.75;;;18.70;99.90;;;;;;5041912;28;20417;-89
2021/10/03 03:52:25;;;;;;;8.88;6.10;;;18.80;99.90;;;;;;5042003;28;20072;-90
2021/10/03 03:54:52;;;;;;;9.45;6.18;;;18.80;99.90;;;;;;5042299;28;20060;-89
2021/10/03 03:57:20;;;;;;;8.50;5.72;;;18.90;99.90;;;;;;5044474;28;20049;-89
2021/10/03 03:59:47;;;;;;;9.80;6.78;;;18.90;99.90;;;;;;5042777;28;20128;-88
2021/10/03 04:02:15;;;;;;;7.63;6.40;;;19.00;99.90;;;;;;5045348;28;20077;-89
2021/10/03 04:04:42;;;;;;;8.02;5.80;;;19.00;99.90;;;;;;5046476;28;20107;-88
2021/10/03 04:07:09;;;;;;;11.18;6.60;;;19.00;99.90;;;;;;5048723;28;20073;-89
2021/10/03 04:09:36;;;;;;;9.60;6.50;;;19.10;99.90;;;;;;5057221;28;20041;-89
2021/10/03 04:12:03;;;;;;;8.13;6.32;;;19.10;99.90;;;;;;5057398;28;20496;-88
2021/10/03 04:14:32;;;;;;;8.07;6.20;;;19.10;99.90;;;;;;5058051;28;20045;-88
2021/10/03 04:16:59;;;;;;;9.38;6.32;;;19.20;99.90;;;;;;5057944;28;20068;-89
2021/10/03 04:19:25;;;;;;;11.65;6.72;;;19.20;99.90;;;;;;5057580;28;20045;-89
2021/10/03 04:21:52;;;;;;;10.25;6.90;;;19.20;99.90;;;;;;5057146;28;20042;-89
2021/10/03 04:24:19;;;;;;;9.13;6.55;;;19.20;99.90;;;;;;5057788;28;20041;-91
2021/10/03 04:26:46;;;;;;;9.82;6.63;;;19.20;99.90;;;;;;5057993;28;20075;-92
2021/10/03 04:29:13;;;;;;;12.52;7.07;;;19.30;99.90;;;;;;5057265;28;20037;-90
2021/10/03 04:31:42;;;;;;;8.48;6.40;;;19.30;99.90;;;;;;5057888;28;20053;-92
2021/10/03 04:34:09;;;;;;;11.45;7.40;;;19.30;99.90;;;;;;5057224;28;20041;-91
2021/10/03 04:36:36;;;;;;;14.93;7.50;;;19.30;99.90;;;;;;5056070;28;20030;-90
2021/10/03 04:39:04;;;;;;;9.57;7.10;;;19.40;99.90;;;;;;5043974;28;20046;-90
2021/10/03 04:41:59;;;;;;;9.88;6.72;;;19.40;99.90;;;;;;5037267;28;20064;-90
2021/10/03 04:44:26;;;;;;;10.82;6.85;;;19.40;99.90;;;;;;5041172;28;20125;-90
2021/10/03 04:50:11;;;;;;;9.65;6.80;;;19.40;99.90;;;;;;5005426;28;20060;-91
2021/10/03 04:52:41;;;;;;;12.98;6.82;;;19.50;99.90;;;;;;5030588;28;20054;-89
2021/10/03 04:55:09;;;;;;;9.45;6.90;;;19.50;99.90;;;;;;5019826;28;20050;-89
2021/10/03 04:57:36;;;;;;;9.73;6.88;;;19.50;99.90;;;;;;5018943;28;20049;-89
2021/10/03 05:00:04;;;;;;;11.77;6.82;;;19.50;99.90;;;;;;5018927;28;20077;-90
2021/10/03 05:02:32;;;;;;;10.73;6.82;;;19.50;99.90;;;;;;5018058;28;20105;-89
2021/10/03 05:04:59;;;;;;;10.55;6.85;;;19.50;99.90;;;;;;5017221;28;20083;-90
2021/10/03 05:07:26;;;;;;;7.82;6.63;;;19.50;99.90;;;;;;5016878;28;20068;-89
2021/10/03 05:09:53;;;;;;;9.00;6.70;;;19.60;99.90;;;;;;5016928;28;20132;-89
2021/10/03 05:12:20;;;;;;;11.23;6.97;;;19.60;99.90;;;;;;5017961;28;20477;-90
2021/10/03 05:14:47;;;;;;;9.13;6.72;;;19.60;99.90;;;;;;5017860;28;20080;-89
2021/10/03 05:17:14;;;;;;;12.48;6.53;;;19.70;99.90;;;;;;5018122;28;20471;-90
2021/10/03 05:19:43;;;;;;;10.52;6.85;;;19.70;99.90;;;;;;5017692;28;20042;-90
2021/10/03 05:22:10;;;;;;;9.32;6.40;;;19.70;99.90;;;;;;5016900;28;20058;-89
2021/10/03 05:24:36;;;;;;;12.38;7.53;;;19.70;99.90;;;;;;5017144;28;20069;-90
2021/10/03 05:27:04;;;;;;;9.02;6.57;;;19.70;99.90;;;;;;5017510;28;20128;-90
2021/10/03 05:29:31;;;;;;;10.23;6.82;;;19.70;99.90;;;;;;5017580;28;20447;-90
2021/10/03 05:31:58;;;;;;;9.43;6.43;;;19.70;99.90;;;;;;5018201;28;20057;-90
2021/10/03 05:34:24;;;;;;;8.20;6.43;;;19.70;99.90;;;;;;5017702;28;20081;-90
2021/10/03 05:36:53;;;;;;;9.75;6.35;;;19.60;99.90;;;;;;5018257;28;20736;-90
2021/10/03 05:39:20;;;;;;;10.90;7.15;;;19.60;99.90;;;;;;5017119;28;20130;-90
2021/10/03 05:41:47;;;;;;;9.10;6.80;;;19.70;99.90;;;;;;5017694;28;20054;-90
2021/10/03 05:44:14;;;;;;;10.55;6.63;;;19.60;99.90;;;;;;5018420;28;20103;-90
2021/10/03 05:46:40;;;;;;;7.85;6.50;;;19.70;99.90;;;;;;5017989;28;20136;-90
2021/10/03 05:49:07;;;;;;;9.82;7.13;;;19.70;99.90;;;;;;5017633;28;20129;-90
2021/10/03 05:51:35;;;;;;;11.10;7.40;;;19.70;99.90;;;;;;5017942;28;20054;-90
2021/10/03 05:54:03;;;;;;;12.55;6.70;;;19.80;99.90;;;;;;5017170;28;20128;-89
2021/10/03 05:56:31;;;;;;;10.60;6.75;;;19.80;99.90;;;;;;5016180;28;20487;-89
2021/10/03 05:58:58;;;;;;;11.00;7.32;;;19.80;99.90;;;;;;5016896;28;20487;-90
2021/10/03 06:01:28;;;;;;;10.82;6.82;;;19.80;99.90;;;;;;5016601;28;20092;-90
2021/10/03 06:03:55;;;;;;;9.93;6.82;;;19.80;99.90;;;;;;5016597;28;20140;-89
2021/10/03 06:06:22;;;;;;;10.18;6.80;;;19.80;99.90;;;;;;5017307;28;20081;-90
2021/10/03 06:08:49;;;;;;;10.35;6.47;;;19.80;99.90;;;;;;5017947;28;20113;-89
2021/10/03 06:11:17;;;;;;;10.13;6.95;;;19.90;99.90;;;;;;5017803;28;20077;-92
2021/10/03 06:13:44;;;;;;;14.07;6.90;;;19.90;99.90;;;;;;5017470;28;20080;-90
2021/10/03 06:16:11;;;;;;;9.25;6.50;;;19.90;99.90;;;;;;5015481;28;20054;-90
2021/10/03 06:18:38;;;;;;;9.77;7.22;;;19.90;99.90;;;;;;5016541;28;20073;-90
2021/10/03 06:21:12;;;;;;;8.95;6.30;;;19.90;99.90;;;;;;5016516;28;20507;-90
2021/10/03 06:23:40;;;;;;;10.90;6.63;;;19.90;99.90;;;;;;5017183;28;20088;-90
2021/10/03 06:26:07;;;;;;;11.65;6.80;;;19.90;99.90;;;;;;5017016;28;20470;-89
2021/10/03 06:28:35;;;;;;;10.57;6.88;;;20.00;99.90;;;;;;5016926;28;20050;-89
2021/10/03 06:31:04;;;;;;;9.15;6.93;;;19.90;99.90;;;;;;5017461;28;20097;-89
2021/10/03 06:33:31;;;;;;;8.60;6.63;;;20.00;99.90;;;;;;5020516;28;20137;-89
2021/10/03 06:35:58;;;;;;;12.70;7.00;;;20.00;99.90;;;;;;5025159;28;20066;-90
2021/10/03 06:38:25;;;;;;;8.90;6.78;;;20.00;99.90;;;;;;5022863;28;20073;-90
2021/10/03 06:40:52;;;;;;;9.70;7.30;;;20.00;99.90;;;;;;5017256;28;20141;-90
2021/10/03 06:43:19;;;;;;;7.70;6.35;;;20.00;99.90;;;;;;5016513;28;20054;-89
2021/10/03 06:45:47;;;;;;;12.65;6.63;;;20.00;99.90;;;;;;5016793;28;20085;-89
2021/10/03 06:48:14;;;;;;;11.05;6.90;;;20.00;99.90;;;;;;5017786;28;20057;-90
2021/10/03 06:50:41;;;;;;;8.23;6.72;;;20.10;99.90;;;;;;5017313;28;20042;-90
2021/10/03 06:53:08;;;;;;;11.45;7.05;;;20.10;99.90;;;;;;5017437;28;20130;-90
2021/10/03 06:55:35;;;;;;;9.10;6.35;;;20.10;99.90;;;;;;5017469;28;20060;-90
2021/10/03 06:58:03;;;;;;;10.35;6.50;;;20.10;99.90;;;;;;5016438;28;20497;-91
2021/10/03 07:00:31;;;;;;;7.28;6.45;;;20.10;99.90;;;;;;5016866;28;20050;-89
2021/10/03 07:03:14;;;;;;;9.27;7.03;;;20.10;99.90;;;;;;5017942;28;20113;-93
2021/10/03 07:05:41;;;;;;;9.75;6.60;;;20.10;99.90;;;;;;5016819;28;20093;-90
2021/10/03 07:08:08;;;;;;;7.28;6.47;;;20.10;99.90;;;;;;5017251;28;20073;-90
2021/10/03 07:10:34;;;;;;;10.85;7.22;;;20.10;99.90;;;;;;5016905;28;20496;-90
2021/10/03 07:13:01;;;;;;;16.35;7.07;;;20.10;99.90;;;;;;5017405;28;20073;-90
2021/10/03 07:15:28;;;;;;;10.52;7.38;;;20.10;99.90;;;;;;5017195;28;20046;-89
2021/10/03 07:17:55;;;;;;;9.85;7.47;;;20.10;99.90;;;;;;5020663;28;20061;-93
2021/10/03 07:20:24;;;;;;;11.32;6.97;;;20.00;99.90;;;;;;5025036;28;20053;-92
2021/10/03 07:22:52;;;;;;;12.15;7.28;;;19.90;99.90;;;;;;5021072;28;20057;-92
2021/10/03 07:25:19;;;;;;;9.32;7.47;;;19.90;99.90;;;;;;5020342;28;20057;-91
2021/10/03 07:27:46;;;;;;;10.40;7.20;;;19.80;99.90;;;;;;5021104;28;20054;-91
2021/10/03 07:30:13;;;;;;;12.93;8.23;;;19.70;99.90;;;;;;5025517;28;20072;-92
2021/10/03 07:32:41;;;;;;;12.60;7.30;;;19.60;99.90;;;;;;5025797;28;20169;-91
2021/10/03 07:35:11;;;;;;;14.60;7.38;;;19.60;99.90;;;;;;5025735;28;20049;-92
2021/10/03 07:37:39;;;;;;;10.18;7.35;;;19.60;99.90;;;;;;5025486;28;20100;-93
2021/10/03 07:40:08;;;;;;;9.52;7.25;;;19.60;99.90;;;;;;5024704;28;20050;-92
2021/10/03 07:42:36;;;;;;;9.32;7.18;;;19.50;99.90;;;;;;5024509;28;20065;-92
2021/10/03 07:45:03;;;;;;;16.23;7.97;;;19.50;99.90;;;;;;5024863;28;20046;-91
2021/10/03 07:47:30;;;;;;;9.25;6.53;;;19.40;99.90;;;;;;5023795;28;20069;-91
2021/10/03 07:49:58;;;;;;;7.85;6.38;;;19.50;99.90;;;;;;5022625;28;20042;-92
2021/10/03 07:52:25;;;;;;;11.20;7.28;;;19.50;99.90;;;;;;5022434;28;20104;-92
2021/10/03 07:54:54;;;;;;;13.38;6.72;;;19.50;99.90;;;;;;5021282;28;20049;-91
2021/10/03 07:57:21;;;;;;;16.25;8.02;;;19.50;99.90;;;;;;5021854;28;20046;-92
2021/10/03 07:59:48;;;;;;;11.35;7.15;;;19.50;99.90;;;;;;5021727;28;20050;-91
2021/10/03 08:02:15;;;;;;;11.07;7.43;;;19.50;99.90;;;;;;5023396;28;20042;-91
2021/10/03 08:04:43;;;;;;;9.30;7.68;;;19.50;99.90;;;;;;5022370;28;20140;-92
2021/10/03 08:07:10;;;;;;;10.13;7.07;;;19.50;99.90;;;;;;5023052;28;20046;-92
2021/10/03 08:09:38;;;;;;;10.95;7.40;;;19.50;99.90;;;;;;5022948;28;20513;-93
2021/10/03 08:12:07;;;;;;;9.13;6.88;;;19.50;99.90;;;;;;5022182;28;20465;-92
2021/10/03 08:14:34;;;;;;;10.57;7.28;;;19.50;99.90;;;;;;5022623;28;20052;-92
2021/10/03 08:17:02;;;;;;;11.32;6.93;;;19.50;99.90;;;;;;5022177;28;20053;-92
2021/10/03 08:19:30;;;;;;;10.38;7.45;;;19.50;99.90;;;;;;5021851;28;20058;-92
2021/10/03 08:21:57;;;;;;;8.70;6.80;;;19.50;99.90;;;;;;5023163;28;20092;-92
2021/10/03 08:24:25;;;;;;;11.13;7.35;;;19.50;99.90;;;;;;5023008;28;20060;-92
2021/10/03 08:26:52;;;;;;;8.60;6.68;;;19.50;99.90;;;;;;5024171;28;20057;-92
2021/10/03 08:29:21;;;;;;;9.50;7.32;;;19.40;99.90;;;;;;5023520;28;20070;-92
2021/10/03 08:31:49;;;;;;;8.88;7.10;;;19.50;99.90;;;;;;5026928;28;20058;-92
2021/10/03 08:34:16;;;;;;;10.73;7.20;;;19.40;99.90;;;;;;5027305;28;20117;-91
2021/10/03 08:36:44;;;;;;;9.02;6.57;;;19.50;99.90;;;;;;5029437;28;20072;-92
2021/10/03 08:39:11;;;;;;;9.93;7.50;;;19.50;99.90;;;;;;5029073;28;20077;-91
2021/10/03 08:41:39;;;;;;;10.88;7.10;;;19.40;99.90;;;;;;5024192;28;20142;-90
2021/10/03 08:44:06;;;;;;;9.10;6.57;;;19.40;99.90;;;;;;5024261;28;20042;-90
2021/10/03 08:46:35;;;;;;;9.30;7.45;;;19.40;99.90;;;;;;5020260;28;20129;-89
2021/10/03 08:49:03;;;;;;;9.98;7.10;;;19.40;99.90;;;;;;5019940;28;20077;-89
2021/10/03 08:51:30;;;;;;;14.43;6.95;;;19.40;99.90;;;;;;5019592;28;20459;-88
2021/10/03 08:53:57;;;;;;;10.25;6.75;;;19.40;99.90;;;;;;5039555;28;20089;-89
2021/10/03 08:56:25;;;;;;;10.27;6.63;;;19.40;99.90;;;;;;5040333;28;20149;-89
2021/10/03 08:58:53;;;;;;;8.30;6.75;;;19.40;99.90;;;;;;5039955;28;20076;-88
2021/10/03 09:01:20;;;;;;;8.95;6.40;;;19.40;99.90;;;;;;5042107;28;20120;-88
2021/10/03 09:03:50;;;;;;;10.35;6.78;;;19.40;99.90;;;;;;5039534;28;20076;-89
2021/10/03 09:06:17;;;;;;;9.65;6.35;;;19.40;99.90;;;;;;5038394;28;20046;-88
2021/10/03 09:08:47;;;;;;;12.02;7.20;;;19.40;99.90;;;;;;5038957;28;20447;-89
2021/10/03 09:11:15;;;;;;;13.10;7.57;;;19.50;99.90;;;;;;5040076;28;20486;-88
2021/10/03 09:13:45;;;;;;;8.80;6.75;;;19.50;99.90;;;;;;5038229;28;20053;-89
2021/10/03 09:16:15;;;;;;;10.20;6.85;;;19.50;99.90;;;;;;5037672;28;20077;-88
2021/10/03 09:18:45;;;;;;;10.60;7.13;;;19.60;99.90;;;;;;5038334;28;20056;-89
2021/10/03 09:21:15;;;;;;;9.48;6.88;;;19.60;99.90;;;;;;5039340;28;20057;-89
2021/10/03 09:23:42;;;;;;;12.93;6.88;;;19.60;99.90;;;;;;5039523;28;20056;-90
2021/10/03 09:26:14;;;;;;;8.43;6.18;;;19.60;99.90;;;;;;5040590;28;20529;-90
2021/10/03 09:28:41;;;;;;;8.82;6.63;;;19.70;99.90;;;;;;5039734;28;20045;-91
2021/10/03 09:31:11;;;;;;;7.72;6.43;;;19.70;99.90;;;;;;5033638;28;20152;-91
2021/10/03 09:33:50;;;;;;;9.38;6.68;;;19.70;99.90;;;;;;5021433;28;20498;-90
2021/10/03 09:36:20;;;;;;;12.60;6.60;;;19.70;99.90;;;;;;5022816;28;20069;-90
2021/10/03 09:38:56;;;;;;;11.48;6.40;;;19.70;99.90;;;;;;5036996;28;20085;-90
2021/10/03 09:41:25;;;;;;;10.27;6.93;;;19.80;99.90;;;;;;5038527;28;20474;-90
2021/10/03 09:43:55;;;;;;;10.07;6.25;;;19.80;99.90;;;;;;5022960;28;20491;-90
2021/10/03 09:46:43;;;;;;;10.57;7.47;;;19.80;99.90;;;;;;5017029;28;20081;-89
2021/10/03 09:49:13;;;;;;;8.00;6.75;;;19.90;99.90;;;;;;5016658;28;20128;-90
2021/10/03 09:51:43;;;;;;;10.82;6.90;;;19.90;99.90;;;;;;5024459;28;20072;-89
2021/10/03 09:54:11;;;;;;;9.50;7.10;;;19.90;99.90;;;;;;5017071;28;20054;-90
2021/10/03 09:56:38;;;;;;;11.25;6.75;;;19.90;99.90;;;;;;5016203;28;20136;-90
2021/10/03 09:59:07;;;;;;;11.52;6.68;;;19.90;99.90;;;;;;5017566;28;20113;-89
2021/10/03 10:01:35;;;;;;;11.35;6.60;;;19.90;99.90;;;;;;5016208;28;20489;-89
2021/10/03 10:04:06;;;;;;;8.38;6.95;;;19.90;99.90;;;;;;5017402;28;20057;-91
2021/10/03 10:06:34;;;;;;;11.87;7.03;;;19.90;99.90;;;;;;5018051;28;20053;-91
2021/10/03 10:09:05;;;;;;;10.73;7.15;;;19.90;99.90;;;;;;5018835;28;20050;-91
2021/10/03 10:11:37;;;;;;;9.57;6.68;;;19.90;99.90;;;;;;5018587;28;20069;-93
2021/10/03 10:14:07;;;;;;;9.70;7.20;;;19.90;99.90;;;;;;5021623;28;20053;-91
2021/10/03 10:16:42;;;;;;;9.80;6.75;;;19.90;99.90;;;;;;5021101;28;20068;-92
2021/10/03 10:19:30;;;;;;;10.10;6.70;;;20.00;99.90;;;;;;5020100;28;20054;-90
2021/10/03 10:22:36;;;;;;;9.38;6.78;;;20.00;99.90;;;;;;5017566;28;20053;-90
2021/10/03 10:25:16;;;;;;;10.93;6.82;;;20.00;99.90;;;;;;5025937;28;20077;-91
2021/10/03 10:28:30;;;;;;;8.98;6.60;;;20.00;99.90;;;;;;5037220;28;20103;-89
2021/10/03 10:31:15;;;;;;;9.95;7.15;;;20.00;99.90;;;;;;4936267;29;20124;-90
2021/10/03 10:34:08;;;;;;;9.27;6.47;;;20.10;99.90;;;;;;5036690;28;20049;-89
2021/10/03 10:36:51;;;;;;;9.15;6.50;;;20.10;99.90;;;;;;5037651;28;20051;-90
2021/10/03 10:39:24;;;;;;;11.02;7.20;;;20.10;99.90;;;;;;5035682;28;20483;-89
2021/10/03 10:41:54;;;;;;;9.52;6.78;;;20.10;99.90;;;;;;5035576;28;20061;-89
2021/10/03 10:44:36;;;;;;;8.35;6.85;;;20.10;99.90;;;;;;5035055;28;20060;-89
2021/10/03 10:47:09;;;;;;;10.95;7.30;;;20.20;99.90;;;;;;5036094;28;20060;-90
2021/10/03 10:49:48;;;;;;;8.73;6.95;;;20.20;99.90;;;;;;5035845;28;20081;-89
2021/10/03 10:52:35;;;;;;;13.70;7.00;;;20.10;99.90;;;;;;5036131;28;20510;-89
2021/10/03 10:55:25;;;;;;;8.45;6.40;;;20.10;99.90;;;;;;5037191;28;20046;-89
2021/10/03 10:58:19;;;;;;;11.27;7.55;;;20.10;99.90;;;;;;5018544;28;20071;-89
2021/10/03 11:01:14;;;;;;;12.27;7.22;;;20.20;99.90;;;;;;5017985;28;20058;-89
2021/10/03 11:04:02;;;;;;;10.13;6.57;;;20.20;99.90;;;;;;5019515;28;20103;-88
2021/10/03 11:07:00;;;;;;;11.00;6.97;;;20.20;99.90;;;;;;5020305;28;20704;-88
2021/10/03 11:09:29;;;;;;;10.43;7.03;;;20.20;99.90;;;;;;5019551;28;20050;-90
2021/10/03 11:12:10;;;;;;;12.05;7.45;;;20.30;99.90;;;;;;5029064;28;20054;-88
2021/10/03 11:14:44;;;;;;;9.20;7.28;;;20.30;99.90;;;;;;5038554;28;20080;-90
2021/10/03 11:17:13;;;;;;;8.60;6.32;;;20.30;99.90;;;;;;5029172;28;20050;-90
2021/10/03 11:19:50;;;;;;;9.23;7.03;;;20.30;99.90;;;;;;5035501;28;20616;-88
2021/10/03 11:22:20;;;;;;;12.30;7.22;;;20.40;99.90;;;;;;5041638;28;20056;-89
2021/10/03 11:24:50;;;;;;;9.02;6.85;;;20.40;99.90;;;;;;5042107;28;20520;-89
2021/10/03 11:27:19;;;;;;;12.48;7.53;;;20.50;99.90;;;;;;5042369;28;20053;-90
2021/10/03 11:29:49;;;;;;;10.73;7.15;;;20.50;99.90;;;;;;5042923;28;20064;-90
2021/10/03 11:32:21;;;;;;;8.20;6.38;;;20.50;99.90;;;;;;5044424;28;20113;-90
2021/10/03 11:34:53;;;;;;;12.40;7.18;;;20.50;99.90;;;;;;5046682;28;20081;-90
2021/10/03 11:37:30;;;;;;;15.20;8.18;;;20.50;99.90;;;;;;5046472;28;20046;-90
2021/10/03 11:39:58;;;;;;;8.55;6.78;;;20.60;99.90;;;;;;5040896;28;20077;-90
2021/10/03 11:42:32;;;;;;;9.60;6.88;;;20.60;99.90;;;;;;5040966;28;20136;-90
2021/10/03 11:45:02;;;;;;;10.45;6.85;;;20.70;99.90;;;;;;5039799;28;20057;-90
2021/10/03 11:47:38;;;;;;;8.43;6.85;;;20.70;99.90;;;;;;5039846;28;20136;-90
2021/10/03 11:50:06;;;;;;;9.85;6.50;;;20.70;99.90;;;;;;5039704;28;20053;-90
2021/10/03 11:52:37;;;;;;;8.30;6.40;;;20.70;99.90;;;;;;5039785;28;20405;-89
2021/10/03 11:55:07;;;;;;;9.65;6.68;;;20.70;99.90;;;;;;5042735;28;20121;-90
2021/10/03 11:57:38;;;;;;;8.02;6.18;;;20.70;99.90;;;;;;5041628;28;20085;-91
2021/10/03 12:00:25;;;;;;;8.65;6.03;;;20.80;99.90;;;;;;5043545;28;20049;-90
2021/10/03 12:02:53;;;;;;;15.63;6.45;;;20.80;99.90;;;;;;5040459;28;20068;-89
2021/10/03 12:05:24;;;;;;;9.20;6.35;;;20.80;99.90;;;;;;5040086;28;20053;-89
2021/10/03 12:08:16;;;;;;;7.88;6.28;;;20.80;99.90;;;;;;5041593;28;20553;-90
2021/10/03 12:10:45;;;;;;;9.68;6.45;;;20.80;99.90;;;;;;5026443;28;20462;-90
2021/10/03 12:13:15;;;;;;;14.35;6.70;;;20.80;99.90;;;;;;5040374;28;20092;-89
2021/10/03 12:15:46;;;;;;;11.98;6.55;;;20.80;99.90;;;;;;5039794;28;20049;-89
2021/10/03 12:18:31;;;;;;;8.02;5.93;;;20.80;99.90;;;;;;5040744;28;20123;-90
2021/10/03 12:21:00;;;;;;;12.15;6.70;;;20.90;99.90;;;;;;5040940;28;20049;-90
2021/10/03 12:24:11;;;;;;;8.00;6.00;;;20.90;99.90;;;;;;5040621;28;20114;-90
2021/10/03 12:26:41;;;;;;;8.27;6.38;;;21.00;99.90;;;;;;5039874;28;20057;-90
2021/10/03 12:29:20;;;;;;;9.57;6.45;;;21.00;99.90;;;;;;5039313;28;20399;-90
2021/10/03 12:32:08;;;;;;;8.18;5.88;;;21.00;99.90;;;;;;5037815;28;20057;-90
2021/10/03 12:34:49;;;;;;;8.65;6.65;;;21.00;99.90;;;;;;5037665;28;20064;-90
2021/10/03 12:37:18;;;;;;;10.55;5.97;;;21.00;99.90;;;;;;5038834;28;20073;-90
2021/10/03 12:39:49;;;;;;;11.80;6.05;;;21.00;99.90;;;;;;5037795;28;20075;-90
2021/10/03 12:42:18;;;;;;;6.60;5.72;;;21.00;99.90;;;;;;5037427;28;20111;-89
2021/10/03 12:44:47;;;;;;;6.78;5.65;;;21.00;99.90;;;;;;5038466;28;20076;-88
2021/10/03 12:47:16;;;;;;;9.13;5.85;;;21.00;99.90;;;;;;5037490;28;20149;-89
2021/10/03 12:49:44;;;;;;;8.77;6.13;;;21.00;99.90;;;;;;5036854;28;20108;-88
2021/10/03 12:52:13;;;;;;;8.10;5.90;;;21.10;99.90;;;;;;5037333;28;20045;-88
2021/10/03 12:54:40;;;;;;;7.00;5.47;;;21.10;99.90;;;;;;5037541;28;20158;-90
2021/10/03 12:57:07;;;;;;;6.82;5.55;;;21.10;99.90;;;;;;5039214;28;20129;-88
2021/10/03 12:59:35;;;;;;;7.38;5.55;;;21.10;99.90;;;;;;5038567;28;20052;-88